sensor_id;sensor_type;location;lat;lon;timestamp;temperature;humidity
15705;DHT22;7952;48.396;12.806;2022-12-01T00:00:59;4.80;61.70
15705;DHT22;7952;48.396;12.806;2022-12-01T00:03:28;4.80;61.70
15705;DHT22;7952;48.396;12.806;2022-12-01T00:05:59;4.70;61.70
15705;DHT22;7952;48.396;12.806;2022-12-01T00:08:25;4.70;61.70
15705;DHT22;7952;48.396;12.806;2022-12-01T00:10:52;4.70;61.80
15705;DHT22;7952;48.396;12.806;2022-12-01T00:13:17;4.70;61.80
15705;DHT22;7952;48.396;12.806;2022-12-01T00:15:43;4.70;61.80
15705;DHT22;7952;48.396;12.806;2022-12-01T00:18:09;4.60;61.70
15705;DHT22;7952;48.396;12.806;2022-12-01T00:20:35;4.60;61.80
15705;DHT22;7952;48.396;12.806;2022-12-01T00:23:01;4.60;61.80
15705;DHT22;7952;48.396;12.806;2022-12-01T00:25:27;4.60;61.80
15705;DHT22;7952;48.396;12.806;2022-12-01T00:27:54;4.60;61.80
15705;DHT22;7952;48.396;12.806;2022-12-01T00:30:21;4.60;61.80
15705;DHT22;7952;48.396;12.806;2022-12-01T00:32:47;4.60;61.70
15705;DHT22;7952;48.396;12.806;2022-12-01T00:35:13;4.50;61.70
15705;DHT22;7952;48.396;12.806;2022-12-01T00:37:40;4.50;61.70
15705;DHT22;7952;48.396;12.806;2022-12-01T00:40:07;4.50;61.70
15705;DHT22;7952;48.396;12.806;2022-12-01T00:42:33;4.60;61.90
15705;DHT22;7952;48.396;12.806;2022-12-01T00:44:58;4.50;61.80
15705;DHT22;7952;48.396;12.806;2022-12-01T00:47:24;4.60;61.90
15705;DHT22;7952;48.396;12.806;2022-12-01T00:49:50;4.60;61.90
15705;DHT22;7952;48.396;12.806;2022-12-01T00:52:18;4.60;61.90
15705;DHT22;7952;48.396;12.806;2022-12-01T00:54:44;4.60;61.80
15705;DHT22;7952;48.396;12.806;2022-12-01T00:57:09;4.70;61.90
15705;DHT22;7952;48.396;12.806;2022-12-01T00:59:35;4.70;61.80
15705;DHT22;7952;48.396;12.806;2022-12-01T01:02:02;4.70;61.80
15705;DHT22;7952;48.396;12.806;2022-12-01T01:04:29;4.70;61.70
15705;DHT22;7952;48.396;12.806;2022-12-01T01:06:55;4.60;61.50
15705;DHT22;7952;48.396;12.806;2022-12-01T01:09:20;4.60;61.60
15705;DHT22;7952;48.396;12.806;2022-12-01T01:11:46;4.60;61.60
15705;DHT22;7952;48.396;12.806;2022-12-01T01:14:11;4.60;61.60
15705;DHT22;7952;48.396;12.806;2022-12-01T01:16:37;4.60;61.60
15705;DHT22;7952;48.396;12.806;2022-12-01T01:19:03;4.60;61.70
15705;DHT22;7952;48.396;12.806;2022-12-01T01:21:28;4.60;61.70
15705;DHT22;7952;48.396;12.806;2022-12-01T01:23:54;4.60;61.70
15705;DHT22;7952;48.396;12.806;2022-12-01T01:26:23;4.70;61.80
15705;DHT22;7952;48.396;12.806;2022-12-01T01:28:49;4.60;61.70
15705;DHT22;7952;48.396;12.806;2022-12-01T01:31:18;4.60;61.70
15705;DHT22;7952;48.396;12.806;2022-12-01T01:33:44;4.60;61.70
15705;DHT22;7952;48.396;12.806;2022-12-01T01:36:11;4.70;61.80
15705;DHT22;7952;48.396;12.806;2022-12-01T01:38:37;4.70;61.80
15705;DHT22;7952;48.396;12.806;2022-12-01T01:41:04;4.70;61.80
15705;DHT22;7952;48.396;12.806;2022-12-01T01:43:48;4.70;61.80
15705;DHT22;7952;48.396;12.806;2022-12-01T01:46:15;4.80;61.80
15705;DHT22;7952;48.396;12.806;2022-12-01T01:48:48;4.80;61.80
15705;DHT22;7952;48.396;12.806;2022-12-01T01:51:16;4.80;61.80
15705;DHT22;7952;48.396;12.806;2022-12-01T01:53:45;4.80;61.80
15705;DHT22;7952;48.396;12.806;2022-12-01T01:56:13;4.80;61.70
15705;DHT22;7952;48.396;12.806;2022-12-01T01:58:39;4.90;61.80
15705;DHT22;7952;48.396;12.806;2022-12-01T02:01:05;4.90;61.80
15705;DHT22;7952;48.396;12.806;2022-12-01T02:03:31;4.90;61.70
15705;DHT22;7952;48.396;12.806;2022-12-01T02:05:57;5.00;61.80
15705;DHT22;7952;48.396;12.806;2022-12-01T02:08:24;4.90;61.70
15705;DHT22;7952;48.396;12.806;2022-12-01T02:11:15;5.00;61.80
15705;DHT22;7952;48.396;12.806;2022-12-01T02:16:47;5.00;61.60
15705;DHT22;7952;48.396;12.806;2022-12-01T02:22:39;5.00;62.20
15705;DHT22;7952;48.396;12.806;2022-12-01T02:25:20;5.00;61.60
15705;DHT22;7952;48.396;12.806;2022-12-01T02:30:49;4.90;61.60
15705;DHT22;7952;48.396;12.806;2022-12-01T02:33:33;4.90;61.60
15705;DHT22;7952;48.396;12.806;2022-12-01T02:36:02;4.80;61.60
15705;DHT22;7952;48.396;12.806;2022-12-01T02:41:25;4.80;61.60
15705;DHT22;7952;48.396;12.806;2022-12-01T02:44:15;4.80;61.70
15705;DHT22;7952;48.396;12.806;2022-12-01T02:49:38;4.70;61.70
15705;DHT22;7952;48.396;12.806;2022-12-01T02:52:05;4.70;61.70
15705;DHT22;7952;48.396;12.806;2022-12-01T02:54:32;4.70;61.70
15705;DHT22;7952;48.396;12.806;2022-12-01T02:56:58;4.70;61.80
15705;DHT22;7952;48.396;12.806;2022-12-01T02:59:24;4.60;61.70
15705;DHT22;7952;48.396;12.806;2022-12-01T03:04:52;4.60;61.70
15705;DHT22;7952;48.396;12.806;2022-12-01T03:13:18;4.50;61.70
15705;DHT22;7952;48.396;12.806;2022-12-01T03:16:22;4.50;61.80
15705;DHT22;7952;48.396;12.806;2022-12-01T03:19:05;4.50;61.80
15705;DHT22;7952;48.396;12.806;2022-12-01T03:21:35;4.50;61.90
15705;DHT22;7952;48.396;12.806;2022-12-01T03:24:12;4.50;61.80
15705;DHT22;7952;48.396;12.806;2022-12-01T03:26:40;4.50;61.80
15705;DHT22;7952;48.396;12.806;2022-12-01T03:29:09;4.50;61.90
15705;DHT22;7952;48.396;12.806;2022-12-01T03:31:40;4.40;61.80
15705;DHT22;7952;48.396;12.806;2022-12-01T03:34:20;4.40;61.80
15705;DHT22;7952;48.396;12.806;2022-12-01T03:36:57;4.40;61.80
15705;DHT22;7952;48.396;12.806;2022-12-01T03:39:28;4.40;61.80
15705;DHT22;7952;48.396;12.806;2022-12-01T03:42:28;4.40;61.80
15705;DHT22;7952;48.396;12.806;2022-12-01T03:44:56;4.40;61.90
15705;DHT22;7952;48.396;12.806;2022-12-01T03:47:26;4.40;61.80
15705;DHT22;7952;48.396;12.806;2022-12-01T03:49:54;4.40;61.90
15705;DHT22;7952;48.396;12.806;2022-12-01T03:55:06;4.30;61.70
15705;DHT22;7952;48.396;12.806;2022-12-01T04:00:22;4.30;61.70
15705;DHT22;7952;48.396;12.806;2022-12-01T04:02:57;4.30;61.70
15705;DHT22;7952;48.396;12.806;2022-12-01T04:05:23;4.30;61.80
15705;DHT22;7952;48.396;12.806;2022-12-01T04:07:48;4.30;61.80
15705;DHT22;7952;48.396;12.806;2022-12-01T04:10:14;4.30;61.90
15705;DHT22;7952;48.396;12.806;2022-12-01T04:12:40;4.30;61.90
15705;DHT22;7952;48.396;12.806;2022-12-01T04:15:08;4.30;61.90
15705;DHT22;7952;48.396;12.806;2022-12-01T04:17:35;4.30;61.90
15705;DHT22;7952;48.396;12.806;2022-12-01T04:20:01;4.30;61.90
15705;DHT22;7952;48.396;12.806;2022-12-01T04:22:28;4.30;61.90
15705;DHT22;7952;48.396;12.806;2022-12-01T04:24:53;4.30;61.90
15705;DHT22;7952;48.396;12.806;2022-12-01T04:27:19;4.30;61.80
15705;DHT22;7952;48.396;12.806;2022-12-01T04:29:45;4.40;61.90
15705;DHT22;7952;48.396;12.806;2022-12-01T04:32:11;4.40;61.80
15705;DHT22;7952;48.396;12.806;2022-12-01T04:34:43;4.40;61.80
15705;DHT22;7952;48.396;12.806;2022-12-01T04:37:09;4.30;61.60
15705;DHT22;7952;48.396;12.806;2022-12-01T04:39:36;4.30;61.70
15705;DHT22;7952;48.396;12.806;2022-12-01T04:42:02;4.30;61.60
15705;DHT22;7952;48.396;12.806;2022-12-01T04:44:28;4.30;61.60
15705;DHT22;7952;48.396;12.806;2022-12-01T04:46:54;4.30;61.60
15705;DHT22;7952;48.396;12.806;2022-12-01T04:49:20;4.20;61.60
15705;DHT22;7952;48.396;12.806;2022-12-01T04:51:46;4.20;61.70
15705;DHT22;7952;48.396;12.806;2022-12-01T04:54:12;4.20;61.80
15705;DHT22;7952;48.396;12.806;2022-12-01T04:56:38;4.20;61.80
15705;DHT22;7952;48.396;12.806;2022-12-01T04:59:04;4.20;61.80
15705;DHT22;7952;48.396;12.806;2022-12-01T05:01:29;4.20;61.80
15705;DHT22;7952;48.396;12.806;2022-12-01T05:03:55;4.20;61.80
15705;DHT22;7952;48.396;12.806;2022-12-01T05:06:23;4.20;61.70
15705;DHT22;7952;48.396;12.806;2022-12-01T05:08:49;4.20;61.70
15705;DHT22;7952;48.396;12.806;2022-12-01T05:11:16;4.20;61.70
15705;DHT22;7952;48.396;12.806;2022-12-01T05:13:43;4.20;61.70
15705;DHT22;7952;48.396;12.806;2022-12-01T05:16:14;4.20;61.70
15705;DHT22;7952;48.396;12.806;2022-12-01T05:18:41;4.20;61.70
15705;DHT22;7952;48.396;12.806;2022-12-01T05:21:08;4.20;61.80
15705;DHT22;7952;48.396;12.806;2022-12-01T05:23:35;4.20;61.80
15705;DHT22;7952;48.396;12.806;2022-12-01T05:26:03;4.20;61.80
15705;DHT22;7952;48.396;12.806;2022-12-01T05:28:28;4.20;61.80
15705;DHT22;7952;48.396;12.806;2022-12-01T05:30:54;4.10;61.70
15705;DHT22;7952;48.396;12.806;2022-12-01T05:33:21;4.20;61.80
15705;DHT22;7952;48.396;12.806;2022-12-01T05:35:48;4.20;61.80
15705;DHT22;7952;48.396;12.806;2022-12-01T05:38:13;4.20;61.70
15705;DHT22;7952;48.396;12.806;2022-12-01T05:40:39;4.30;61.60
15705;DHT22;7952;48.396;12.806;2022-12-01T05:43:05;4.30;61.60
15705;DHT22;7952;48.396;12.806;2022-12-01T05:45:31;4.30;61.60
15705;DHT22;7952;48.396;12.806;2022-12-01T05:47:58;4.30;61.50
15705;DHT22;7952;48.396;12.806;2022-12-01T05:50:25;4.30;61.60
15705;DHT22;7952;48.396;12.806;2022-12-01T05:52:51;4.30;61.60
15705;DHT22;7952;48.396;12.806;2022-12-01T05:55:16;4.30;61.50
15705;DHT22;7952;48.396;12.806;2022-12-01T05:57:42;4.30;61.60
15705;DHT22;7952;48.396;12.806;2022-12-01T06:00:08;4.30;61.50
15705;DHT22;7952;48.396;12.806;2022-12-01T06:02:34;4.30;61.50
15705;DHT22;7952;48.396;12.806;2022-12-01T06:04:59;4.30;61.50
15705;DHT22;7952;48.396;12.806;2022-12-01T06:07:25;4.20;61.40
15705;DHT22;7952;48.396;12.806;2022-12-01T06:09:51;4.20;61.50
15705;DHT22;7952;48.396;12.806;2022-12-01T06:12:18;4.20;61.50
15705;DHT22;7952;48.396;12.806;2022-12-01T06:14:44;4.10;61.50
15705;DHT22;7952;48.396;12.806;2022-12-01T06:17:10;4.10;61.60
15705;DHT22;7952;48.396;12.806;2022-12-01T06:19:36;4.10;61.60
15705;DHT22;7952;48.396;12.806;2022-12-01T06:22:01;4.10;61.70
15705;DHT22;7952;48.396;12.806;2022-12-01T06:24:28;4.10;61.70
15705;DHT22;7952;48.396;12.806;2022-12-01T06:26:53;4.10;61.70
15705;DHT22;7952;48.396;12.806;2022-12-01T06:29:19;4.10;61.70
15705;DHT22;7952;48.396;12.806;2022-12-01T06:31:45;4.10;61.80
15705;DHT22;7952;48.396;12.806;2022-12-01T06:34:10;4.10;61.70
15705;DHT22;7952;48.396;12.806;2022-12-01T06:36:36;4.20;61.80
15705;DHT22;7952;48.396;12.806;2022-12-01T06:39:05;4.20;61.80
15705;DHT22;7952;48.396;12.806;2022-12-01T06:41:32;4.20;61.80
15705;DHT22;7952;48.396;12.806;2022-12-01T06:43:58;4.20;61.60
15705;DHT22;7952;48.396;12.806;2022-12-01T06:46:25;4.20;61.80
15705;DHT22;7952;48.396;12.806;2022-12-01T06:48:50;4.20;61.80
15705;DHT22;7952;48.396;12.806;2022-12-01T06:51:16;4.20;61.70
15705;DHT22;7952;48.396;12.806;2022-12-01T06:53:42;4.20;61.70
15705;DHT22;7952;48.396;12.806;2022-12-01T06:56:07;4.30;61.80
15705;DHT22;7952;48.396;12.806;2022-12-01T06:58:33;4.30;61.70
15705;DHT22;7952;48.396;12.806;2022-12-01T07:00:59;4.30;61.70
15705;DHT22;7952;48.396;12.806;2022-12-01T07:03:24;4.30;61.70
15705;DHT22;7952;48.396;12.806;2022-12-01T07:05:57;4.20;61.60
15705;DHT22;7952;48.396;12.806;2022-12-01T07:08:24;4.20;61.70
15705;DHT22;7952;48.396;12.806;2022-12-01T07:13:22;4.20;61.70
15705;DHT22;7952;48.396;12.806;2022-12-01T07:15:47;4.20;61.80
15705;DHT22;7952;48.396;12.806;2022-12-01T07:18:13;4.30;61.90
15705;DHT22;7952;48.396;12.806;2022-12-01T07:20:38;4.30;61.80
15705;DHT22;7952;48.396;12.806;2022-12-01T07:23:04;4.30;61.80
15705;DHT22;7952;48.396;12.806;2022-12-01T07:25:29;4.30;61.80
15705;DHT22;7952;48.396;12.806;2022-12-01T07:27:55;4.30;61.80
15705;DHT22;7952;48.396;12.806;2022-12-01T07:30:21;4.40;61.90
15705;DHT22;7952;48.396;12.806;2022-12-01T07:32:46;4.40;61.90
15705;DHT22;7952;48.396;12.806;2022-12-01T07:35:12;4.40;61.90
15705;DHT22;7952;48.396;12.806;2022-12-01T07:37:37;4.50;62.00
15705;DHT22;7952;48.396;12.806;2022-12-01T07:40:04;4.50;62.00
15705;DHT22;7952;48.396;12.806;2022-12-01T07:42:29;4.60;62.10
15705;DHT22;7952;48.396;12.806;2022-12-01T07:44:55;4.60;62.10
15705;DHT22;7952;48.396;12.806;2022-12-01T07:47:20;4.70;62.10
15705;DHT22;7952;48.396;12.806;2022-12-01T07:49:46;4.70;62.10
15705;DHT22;7952;48.396;12.806;2022-12-01T07:52:11;4.80;62.10
15705;DHT22;7952;48.396;12.806;2022-12-01T07:54:37;4.90;62.10
15705;DHT22;7952;48.396;12.806;2022-12-01T07:57:02;5.00;62.10
15705;DHT22;7952;48.396;12.806;2022-12-01T07:59:28;5.10;62.10
15705;DHT22;7952;48.396;12.806;2022-12-01T08:01:54;5.10;61.90
15705;DHT22;7952;48.396;12.806;2022-12-01T08:04:19;5.10;61.80
15705;DHT22;7952;48.396;12.806;2022-12-01T08:06:45;5.20;61.90
15705;DHT22;7952;48.396;12.806;2022-12-01T08:09:10;5.20;61.90
15705;DHT22;7952;48.396;12.806;2022-12-01T08:11:36;5.30;62.00
15705;DHT22;7952;48.396;12.806;2022-12-01T08:14:01;5.30;62.10
15705;DHT22;7952;48.396;12.806;2022-12-01T08:16:27;5.40;62.30
15705;DHT22;7952;48.396;12.806;2022-12-01T08:18:53;5.50;62.50
15705;DHT22;7952;48.396;12.806;2022-12-01T08:21:20;5.60;62.80
15705;DHT22;7952;48.396;12.806;2022-12-01T08:23:47;5.80;62.80
15705;DHT22;7952;48.396;12.806;2022-12-01T08:26:15;5.90;62.70
15705;DHT22;7952;48.396;12.806;2022-12-01T08:28:42;6.10;62.70
15705;DHT22;7952;48.396;12.806;2022-12-01T08:31:20;6.20;62.50
15705;DHT22;7952;48.396;12.806;2022-12-01T08:33:47;6.20;62.30
15705;DHT22;7952;48.396;12.806;2022-12-01T08:36:13;6.20;62.10
15705;DHT22;7952;48.396;12.806;2022-12-01T08:38:45;6.20;62.00
15705;DHT22;7952;48.396;12.806;2022-12-01T08:41:11;6.20;62.00
15705;DHT22;7952;48.396;12.806;2022-12-01T08:43:37;6.30;62.20
15705;DHT22;7952;48.396;12.806;2022-12-01T08:46:08;6.30;62.40
15705;DHT22;7952;48.396;12.806;2022-12-01T08:48:34;6.40;62.60
15705;DHT22;7952;48.396;12.806;2022-12-01T08:51:05;6.50;62.70
15705;DHT22;7952;48.396;12.806;2022-12-01T08:53:32;6.60;62.60
15705;DHT22;7952;48.396;12.806;2022-12-01T08:56:04;6.60;62.40
15705;DHT22;7952;48.396;12.806;2022-12-01T08:58:30;6.70;62.30
15705;DHT22;7952;48.396;12.806;2022-12-01T09:01:08;6.70;62.30
15705;DHT22;7952;48.396;12.806;2022-12-01T09:03:35;6.80;62.30
15705;DHT22;7952;48.396;12.806;2022-12-01T09:06:06;6.80;62.90
15705;DHT22;7952;48.396;12.806;2022-12-01T09:08:32;6.80;62.60
15705;DHT22;7952;48.396;12.806;2022-12-01T09:11:10;6.90;62.50
15705;DHT22;7952;48.396;12.806;2022-12-01T09:13:37;7.00;62.80
15705;DHT22;7952;48.396;12.806;2022-12-01T09:16:14;7.10;62.90
15705;DHT22;7952;48.396;12.806;2022-12-01T09:18:41;7.20;62.90
15705;DHT22;7952;48.396;12.806;2022-12-01T09:21:22;7.30;63.00
15705;DHT22;7952;48.396;12.806;2022-12-01T09:23:48;7.30;62.70
15705;DHT22;7952;48.396;12.806;2022-12-01T09:26:16;7.40;62.50
15705;DHT22;7952;48.396;12.806;2022-12-01T09:28:47;7.30;62.20
15705;DHT22;7952;48.396;12.806;2022-12-01T09:31:15;7.30;62.10
15705;DHT22;7952;48.396;12.806;2022-12-01T09:33:41;7.30;62.10
15705;DHT22;7952;48.396;12.806;2022-12-01T09:36:07;7.30;62.20
15705;DHT22;7952;48.396;12.806;2022-12-01T09:38:34;7.20;62.30
15705;DHT22;7952;48.396;12.806;2022-12-01T09:41:04;7.30;62.50
15705;DHT22;7952;48.396;12.806;2022-12-01T09:43:45;7.30;62.60
15705;DHT22;7952;48.396;12.806;2022-12-01T09:46:17;7.40;62.70
15705;DHT22;7952;48.396;12.806;2022-12-01T09:48:46;7.40;62.40
15705;DHT22;7952;48.396;12.806;2022-12-01T09:51:20;7.50;62.30
15705;DHT22;7952;48.396;12.806;2022-12-01T09:53:51;7.50;62.20
15705;DHT22;7952;48.396;12.806;2022-12-01T09:56:23;7.40;62.00
15705;DHT22;7952;48.396;12.806;2022-12-01T09:58:53;7.40;62.10
15705;DHT22;7952;48.396;12.806;2022-12-01T10:01:25;7.40;62.00
15705;DHT22;7952;48.396;12.806;2022-12-01T10:03:58;7.40;62.10
15705;DHT22;7952;48.396;12.806;2022-12-01T10:06:51;7.30;62.00
15705;DHT22;7952;48.396;12.806;2022-12-01T10:09:53;7.30;62.00
15705;DHT22;7952;48.396;12.806;2022-12-01T10:12:21;7.30;62.00
15705;DHT22;7952;48.396;12.806;2022-12-01T10:14:52;7.20;61.90
15705;DHT22;7952;48.396;12.806;2022-12-01T10:17:30;7.20;61.90
15705;DHT22;7952;48.396;12.806;2022-12-01T10:20:26;7.20;61.80
15705;DHT22;7952;48.396;12.806;2022-12-01T10:31:20;7.10;62.20
15705;DHT22;7952;48.396;12.806;2022-12-01T10:33:59;7.20;62.30
15705;DHT22;7952;48.396;12.806;2022-12-01T10:36:27;7.20;62.30
15705;DHT22;7952;48.396;12.806;2022-12-01T10:38:53;7.20;62.20
15705;DHT22;7952;48.396;12.806;2022-12-01T10:41:21;7.30;62.30
15705;DHT22;7952;48.396;12.806;2022-12-01T10:43:55;7.30;62.20
15705;DHT22;7952;48.396;12.806;2022-12-01T10:46:28;7.40;62.30
15705;DHT22;7952;48.396;12.806;2022-12-01T10:48:59;7.40;62.30
15705;DHT22;7952;48.396;12.806;2022-12-01T10:51:56;7.50;62.30
15705;DHT22;7952;48.396;12.806;2022-12-01T10:54:30;7.50;62.20
15705;DHT22;7952;48.396;12.806;2022-12-01T10:56:56;7.50;62.10
15705;DHT22;7952;48.396;12.806;2022-12-01T10:59:39;7.60;62.20
15705;DHT22;7952;48.396;12.806;2022-12-01T11:02:18;7.50;61.90
15705;DHT22;7952;48.396;12.806;2022-12-01T11:05:00;7.50;61.80
15705;DHT22;7952;48.396;12.806;2022-12-01T11:07:29;7.50;61.70
15705;DHT22;7952;48.396;12.806;2022-12-01T11:13:05;7.40;61.60
15705;DHT22;7952;48.396;12.806;2022-12-01T11:15:39;7.30;61.60
15705;DHT22;7952;48.396;12.806;2022-12-01T11:20:46;7.20;61.60
15705;DHT22;7952;48.396;12.806;2022-12-01T11:26:05;7.10;61.70
15705;DHT22;7952;48.396;12.806;2022-12-01T11:28:34;7.10;61.70
15705;DHT22;7952;48.396;12.806;2022-12-01T11:31:06;7.00;61.60
15705;DHT22;7952;48.396;12.806;2022-12-01T11:33:44;7.00;61.70
15705;DHT22;7952;48.396;12.806;2022-12-01T11:36:24;6.90;61.70
15705;DHT22;7952;48.396;12.806;2022-12-01T11:38:58;6.90;61.80
15705;DHT22;7952;48.396;12.806;2022-12-01T11:41:31;6.80;61.80
15705;DHT22;7952;48.396;12.806;2022-12-01T11:43:59;6.80;61.90
15705;DHT22;7952;48.396;12.806;2022-12-01T11:46:33;6.80;61.90
15705;DHT22;7952;48.396;12.806;2022-12-01T11:49:00;6.80;61.90
15705;DHT22;7952;48.396;12.806;2022-12-01T11:51:30;6.80;62.00
15705;DHT22;7952;48.396;12.806;2022-12-01T11:54:10;6.80;62.00
15705;DHT22;7952;48.396;12.806;2022-12-01T11:56:37;6.80;62.00
15705;DHT22;7952;48.396;12.806;2022-12-01T11:59:26;6.80;62.00
15705;DHT22;7952;48.396;12.806;2022-12-01T12:04:43;6.80;62.00
15705;DHT22;7952;48.396;12.806;2022-12-01T12:13:14;6.70;61.90
15705;DHT22;7952;48.396;12.806;2022-12-01T12:18:34;6.70;62.00
15705;DHT22;7952;48.396;12.806;2022-12-01T12:21:18;6.70;62.00
15705;DHT22;7952;48.396;12.806;2022-12-01T12:26:43;6.80;62.00
15705;DHT22;7952;48.396;12.806;2022-12-01T12:30:27;6.80;62.00
15705;DHT22;7952;48.396;12.806;2022-12-01T12:32:42;6.80;62.00
15705;DHT22;7952;48.396;12.806;2022-12-01T12:49:26;6.80;62.00
15705;DHT22;7952;48.396;12.806;2022-12-01T12:52:00;6.80;62.00
15705;DHT22;7952;48.396;12.806;2022-12-01T12:54:35;6.80;62.00
15705;DHT22;7952;48.396;12.806;2022-12-01T12:57:16;6.80;62.00
15705;DHT22;7952;48.396;12.806;2022-12-01T13:02:39;6.80;62.00
15705;DHT22;7952;48.396;12.806;2022-12-01T13:05:15;6.80;62.50
15705;DHT22;7952;48.396;12.806;2022-12-01T13:07:51;6.80;61.90
15705;DHT22;7952;48.396;12.806;2022-12-01T13:10:41;6.80;61.90
15705;DHT22;7952;48.396;12.806;2022-12-01T13:15:50;6.80;62.00
15705;DHT22;7952;48.396;12.806;2022-12-01T13:20:45;6.90;62.10
15705;DHT22;7952;48.396;12.806;2022-12-01T13:23:15;6.90;62.10
15705;DHT22;7952;48.396;12.806;2022-12-01T13:25:43;6.90;62.10
15705;DHT22;7952;48.396;12.806;2022-12-01T13:28:40;7.00;62.20
15705;DHT22;7952;48.396;12.806;2022-12-01T13:31:12;7.00;62.30
15705;DHT22;7952;48.396;12.806;2022-12-01T13:33:52;7.00;62.20
15705;DHT22;7952;48.396;12.806;2022-12-01T13:36:18;7.10;62.30
15705;DHT22;7952;48.396;12.806;2022-12-01T13:38:55;7.10;62.20
15705;DHT22;7952;48.396;12.806;2022-12-01T13:41:31;7.10;62.10
15705;DHT22;7952;48.396;12.806;2022-12-01T13:46:29;7.10;62.00
15705;DHT22;7952;48.396;12.806;2022-12-01T13:48:58;7.10;62.00
15705;DHT22;7952;48.396;12.806;2022-12-01T13:51:24;7.10;62.00
15705;DHT22;7952;48.396;12.806;2022-12-01T13:54:32;7.20;62.10
15705;DHT22;7952;48.396;12.806;2022-12-01T13:57:04;7.20;62.00
15705;DHT22;7952;48.396;12.806;2022-12-01T13:59:39;7.20;62.00
15705;DHT22;7952;48.396;12.806;2022-12-01T14:02:17;7.20;62.10
15705;DHT22;7952;48.396;12.806;2022-12-01T14:04:43;7.20;62.10
15705;DHT22;7952;48.396;12.806;2022-12-01T14:09:50;7.20;62.10
15705;DHT22;7952;48.396;12.806;2022-12-01T14:12:20;7.20;62.10
15705;DHT22;7952;48.396;12.806;2022-12-01T14:15:03;7.20;62.00
15705;DHT22;7952;48.396;12.806;2022-12-01T14:17:30;7.20;62.00
15705;DHT22;7952;48.396;12.806;2022-12-01T14:20:17;7.20;61.90
15705;DHT22;7952;48.396;12.806;2022-12-01T14:22:45;7.20;61.90
15705;DHT22;7952;48.396;12.806;2022-12-01T14:27:48;7.10;62.00
15705;DHT22;7952;48.396;12.806;2022-12-01T14:33:42;7.10;62.20
15705;DHT22;7952;48.396;12.806;2022-12-01T14:38:53;7.10;62.20
15705;DHT22;7952;48.396;12.806;2022-12-01T14:41:24;7.10;62.20
15705;DHT22;7952;48.396;12.806;2022-12-01T14:44:02;7.10;62.20
15705;DHT22;7952;48.396;12.806;2022-12-01T14:49:51;7.10;62.80
15705;DHT22;7952;48.396;12.806;2022-12-01T14:54:55;7.10;62.10
15705;DHT22;7952;48.396;12.806;2022-12-01T14:57:24;7.10;62.10
15705;DHT22;7952;48.396;12.806;2022-12-01T15:00:22;7.10;62.10
15705;DHT22;7952;48.396;12.806;2022-12-01T15:02:57;7.10;62.00
15705;DHT22;7952;48.396;12.806;2022-12-01T15:05:25;7.10;62.00
15705;DHT22;7952;48.396;12.806;2022-12-01T15:07:54;7.10;62.10
15705;DHT22;7952;48.396;12.806;2022-12-01T15:10:24;7.00;62.10
15705;DHT22;7952;48.396;12.806;2022-12-01T15:12:51;7.10;62.20
15705;DHT22;7952;48.396;12.806;2022-12-01T15:15:22;7.00;62.20
15705;DHT22;7952;48.396;12.806;2022-12-01T15:17:48;7.10;62.30
15705;DHT22;7952;48.396;12.806;2022-12-01T15:20:28;7.00;62.20
15705;DHT22;7952;48.396;12.806;2022-12-01T15:22:54;7.10;62.30
15705;DHT22;7952;48.396;12.806;2022-12-01T15:25:21;7.00;62.20
15705;DHT22;7952;48.396;12.806;2022-12-01T15:28:16;7.00;62.20
15705;DHT22;7952;48.396;12.806;2022-12-01T15:30:45;7.10;62.20
15705;DHT22;7952;48.396;12.806;2022-12-01T15:33:23;7.10;62.30
15705;DHT22;7952;48.396;12.806;2022-12-01T15:35:49;7.10;62.20
15705;DHT22;7952;48.396;12.806;2022-12-01T15:38:18;7.10;62.20
15705;DHT22;7952;48.396;12.806;2022-12-01T15:40:46;7.10;62.20
15705;DHT22;7952;48.396;12.806;2022-12-01T15:43:20;7.10;62.20
15705;DHT22;7952;48.396;12.806;2022-12-01T15:46:01;7.10;62.20
15705;DHT22;7952;48.396;12.806;2022-12-01T15:48:30;7.10;62.20
15705;DHT22;7952;48.396;12.806;2022-12-01T15:51:12;7.10;62.80
15705;DHT22;7952;48.396;12.806;2022-12-01T15:53:45;7.10;62.10
15705;DHT22;7952;48.396;12.806;2022-12-01T15:56:12;7.10;62.10
15705;DHT22;7952;48.396;12.806;2022-12-01T15:58:46;7.10;62.20
15705;DHT22;7952;48.396;12.806;2022-12-01T16:01:15;7.10;62.40
15705;DHT22;7952;48.396;12.806;2022-12-01T16:04:03;7.10;62.20
15705;DHT22;7952;48.396;12.806;2022-12-01T16:06:35;7.10;62.10
15705;DHT22;7952;48.396;12.806;2022-12-01T16:09:15;7.10;62.20
15705;DHT22;7952;48.396;12.806;2022-12-01T16:14:54;7.10;62.10
15705;DHT22;7952;48.396;12.806;2022-12-01T16:17:22;7.10;62.10
15705;DHT22;7952;48.396;12.806;2022-12-01T16:19:48;7.10;62.10
15705;DHT22;7952;48.396;12.806;2022-12-01T16:22:16;7.10;62.10
15705;DHT22;7952;48.396;12.806;2022-12-01T16:27:19;7.10;62.20
15705;DHT22;7952;48.396;12.806;2022-12-01T16:32:40;7.10;62.30
15705;DHT22;7952;48.396;12.806;2022-12-01T16:35:22;7.10;62.30
15705;DHT22;7952;48.396;12.806;2022-12-01T16:37:47;7.20;62.30
15705;DHT22;7952;48.396;12.806;2022-12-01T16:40:13;7.10;62.30
15705;DHT22;7952;48.396;12.806;2022-12-01T16:42:39;7.10;62.30
15705;DHT22;7952;48.396;12.806;2022-12-01T16:45:05;7.10;62.20
15705;DHT22;7952;48.396;12.806;2022-12-01T16:47:32;7.10;62.20
15705;DHT22;7952;48.396;12.806;2022-12-01T16:49:57;7.10;62.20
15705;DHT22;7952;48.396;12.806;2022-12-01T16:52:23;7.20;62.20
15705;DHT22;7952;48.396;12.806;2022-12-01T16:54:49;7.20;62.20
15705;DHT22;7952;48.396;12.806;2022-12-01T16:57:14;7.20;62.20
15705;DHT22;7952;48.396;12.806;2022-12-01T16:59:42;7.20;62.20
15705;DHT22;7952;48.396;12.806;2022-12-01T17:02:09;7.20;62.20
15705;DHT22;7952;48.396;12.806;2022-12-01T17:04:35;7.20;62.20
15705;DHT22;7952;48.396;12.806;2022-12-01T17:07:01;7.20;62.20
15705;DHT22;7952;48.396;12.806;2022-12-01T17:09:27;7.20;62.30
15705;DHT22;7952;48.396;12.806;2022-12-01T17:11:52;7.20;62.30
15705;DHT22;7952;48.396;12.806;2022-12-01T17:14:21;7.20;62.20
15705;DHT22;7952;48.396;12.806;2022-12-01T17:16:47;7.20;62.20
15705;DHT22;7952;48.396;12.806;2022-12-01T17:19:13;7.20;62.20
15705;DHT22;7952;48.396;12.806;2022-12-01T17:21:39;7.20;62.20
15705;DHT22;7952;48.396;12.806;2022-12-01T17:24:04;7.20;62.20
15705;DHT22;7952;48.396;12.806;2022-12-01T17:26:30;7.20;62.10
15705;DHT22;7952;48.396;12.806;2022-12-01T17:28:56;7.20;62.10
15705;DHT22;7952;48.396;12.806;2022-12-01T17:31:21;7.20;62.20
15705;DHT22;7952;48.396;12.806;2022-12-01T17:33:47;7.20;62.20
15705;DHT22;7952;48.396;12.806;2022-12-01T17:36:13;7.20;62.20
15705;DHT22;7952;48.396;12.806;2022-12-01T17:38:41;7.10;62.20
15705;DHT22;7952;48.396;12.806;2022-12-01T17:41:09;7.10;62.20
15705;DHT22;7952;48.396;12.806;2022-12-01T17:43:36;7.20;62.30
15705;DHT22;7952;48.396;12.806;2022-12-01T17:46:03;7.20;62.20
15705;DHT22;7952;48.396;12.806;2022-12-01T17:48:37;7.20;62.20
15705;DHT22;7952;48.396;12.806;2022-12-01T17:51:03;7.20;62.20
15705;DHT22;7952;48.396;12.806;2022-12-01T17:53:28;7.20;62.20
15705;DHT22;7952;48.396;12.806;2022-12-01T17:55:54;7.20;62.20